Time;durP1;ratioP1;P1;durP2;ratioP2;P2;SDS_P1;SDS_P2;PMS_P1;PMS_P2;Temp;Humidity;BMP_temperature;BMP_pressure;BME280_temperature;BME280_humidity;BME280_pressure;Samples;Min_cycle;Max_cycle;Signal;HPM_P1;HPM_P2
2022/05/18 00:00:57;;;;;;;11.15;4.53;;;;;;;;;;6222935;28;20234;-66
2022/05/18 00:03:59;;;;;;;6.57;3.70;;;;;;;;;;6222400;28;20228;-67
2022/05/18 00:07:01;;;;;;;9.15;3.53;;;;;;;;;;6224020;28;20050;-66
2022/05/18 00:10:05;;;;;;;6.85;3.53;;;;;;;;;;6230588;28;20054;-67
2022/05/18 00:13:07;;;;;;;8.45;3.92;;;;;;;;;;6222025;28;20060;-65
2022/05/18 00:16:09;;;;;;;9.13;3.90;;;;;;;;;;6221247;28;20050;-67
2022/05/18 00:19:10;;;;;;;8.10;4.10;;;;;;;;;;6224717;28;20046;-66
2022/05/18 00:22:12;;;;;;;6.97;3.88;;;;;;;;;;6224960;28;20053;-67
2022/05/18 00:25:16;;;;;;;7.15;4.15;;;;;;;;;;6222024;28;20058;-67
2022/05/18 00:28:17;;;;;;;9.60;3.50;;;;;;;;;;6222070;28;20111;-67
2022/05/18 00:31:20;;;;;;;7.82;4.38;;;;;;;;;;6223206;28;20049;-68
2022/05/18 00:34:21;;;;;;;11.23;3.70;;;;;;;;;;6223912;28;20042;-67
2022/05/18 00:37:23;;;;;;;5.95;3.80;;;;;;;;;;6223773;28;20328;-68
2022/05/18 00:40:26;;;;;;;7.78;3.60;;;;;;;;;;6224048;28;20112;-67
2022/05/18 00:43:40;;;;;;;6.45;3.50;;;;;;;;;;6227087;28;20353;-68
2022/05/18 00:46:42;;;;;;;9.60;3.90;;;;;;;;;;6225382;28;20054;-67
2022/05/18 00:49:46;;;;;;;7.32;3.50;;;;;;;;;;6218484;28;20108;-67
2022/05/18 00:52:50;;;;;;;11.40;3.95;;;;;;;;;;6220283;28;20058;-67
2022/05/18 00:55:56;;;;;;;8.50;3.53;;;;;;;;;;6224004;28;20050;-67
2022/05/18 00:59:01;;;;;;;8.52;3.60;;;;;;;;;;6218653;28;20042;-68
2022/05/18 01:02:04;;;;;;;8.38;3.42;;;;;;;;;;6219752;28;20057;-69
2022/05/18 01:05:08;;;;;;;8.43;4.00;;;;;;;;;;6224618;28;20046;-69
2022/05/18 01:08:12;;;;;;;9.02;3.33;;;;;;;;;;6224250;28;20112;-68
2022/05/18 01:11:14;;;;;;;4.95;2.95;;;;;;;;;;6225047;28;20046;-67
2022/05/18 01:14:19;;;;;;;6.70;3.70;;;;;;;;;;6223692;28;20097;-67
2022/05/18 01:17:23;;;;;;;10.32;3.35;;;;;;;;;;6222656;28;20128;-69
2022/05/18 01:20:27;;;;;;;10.23;3.42;;;;;;;;;;6219260;28;20192;-67
2022/05/18 01:23:42;;;;;;;9.98;3.95;;;;;;;;;;6222872;28;20054;-68
2022/05/18 01:26:47;;;;;;;8.65;3.55;;;;;;;;;;6221034;28;20333;-68
2022/05/18 01:29:49;;;;;;;6.22;3.42;;;;;;;;;;6221288;28;20054;-68
2022/05/18 01:32:56;;;;;;;7.18;3.65;;;;;;;;;;6227562;28;20058;-68
2022/05/18 01:35:58;;;;;;;6.57;3.25;;;;;;;;;;6225325;28;20049;-67
2022/05/18 01:39:00;;;;;;;5.65;3.53;;;;;;;;;;6223816;28;20117;-68
2022/05/18 01:42:11;;;;;;;9.38;3.92;;;;;;;;;;6222796;28;20061;-68
2022/05/18 01:45:13;;;;;;;10.18;4.28;;;;;;;;;;6223738;28;20050;-70
2022/05/18 01:48:16;;;;;;;13.15;4.05;;;;;;;;;;6226012;28;20064;-69
2022/05/18 01:51:26;;;;;;;10.07;3.45;;;;;;;;;;6221872;28;20046;-68
2022/05/18 01:54:28;;;;;;;8.77;3.67;;;;;;;;;;6220498;28;20241;-69
2022/05/18 01:57:31;;;;;;;9.07;3.60;;;;;;;;;;6223045;28;20049;-68
2022/05/18 02:00:33;;;;;;;8.40;3.90;;;;;;;;;;6229716;28;20046;-68
2022/05/18 02:03:35;;;;;;;8.90;4.10;;;;;;;;;;6224047;28;20121;-67
2022/05/18 02:06:36;;;;;;;6.80;3.92;;;;;;;;;;6223914;28;20058;-67
2022/05/18 02:09:38;;;;;;;8.82;4.43;;;;;;;;;;6224250;28;20046;-68
2022/05/18 02:12:41;;;;;;;9.43;4.80;;;;;;;;;;6223509;28;20053;-68
2022/05/18 02:15:44;;;;;;;9.65;4.22;;;;;;;;;;6221094;28;20096;-68
2022/05/18 02:18:45;;;;;;;13.07;4.40;;;;;;;;;;6224907;28;20100;-67
2022/05/18 02:21:47;;;;;;;9.05;4.95;;;;;;;;;;6220677;28;20245;-68
2022/05/18 02:24:49;;;;;;;6.28;4.10;;;;;;;;;;6224229;28;20099;-69
2022/05/18 02:27:51;;;;;;;8.30;4.88;;;;;;;;;;6220300;28;20337;-68
2022/05/18 02:30:53;;;;;;;9.07;5.30;;;;;;;;;;6222073;28;20155;-68
2022/05/18 02:33:55;;;;;;;14.57;4.60;;;;;;;;;;6221904;28;20069;-69
2022/05/18 02:36:56;;;;;;;11.02;4.57;;;;;;;;;;6223277;28;20050;-68
2022/05/18 02:39:58;;;;;;;6.70;4.68;;;;;;;;;;6223886;28;20112;-69
2022/05/18 02:43:01;;;;;;;9.95;4.55;;;;;;;;;;6224723;28;20046;-68
2022/05/18 02:46:05;;;;;;;10.07;4.93;;;;;;;;;;6220316;28;20329;-68
2022/05/18 02:49:06;;;;;;;11.65;4.45;;;;;;;;;;6221765;28;20057;-68
2022/05/18 02:52:08;;;;;;;7.00;4.40;;;;;;;;;;6221211;28;20116;-68
2022/05/18 02:58:31;;;;;;;7.22;4.50;;;;;;;;;;6219509;28;20046;-70
2022/05/18 03:01:33;;;;;;;8.98;4.63;;;;;;;;;;6220722;28;20071;-69
2022/05/18 03:04:35;;;;;;;10.90;5.65;;;;;;;;;;6202178;28;20065;-69
2022/05/18 03:07:37;;;;;;;9.10;5.65;;;;;;;;;;6213612;28;20436;-69
2022/05/18 03:10:39;;;;;;;7.77;6.00;;;;;;;;;;6209446;28;20042;-69
2022/05/18 03:13:42;;;;;;;15.32;6.95;;;;;;;;;;6214682;28;20065;-69
2022/05/18 03:16:44;;;;;;;11.00;6.28;;;;;;;;;;6221676;28;20277;-69
2022/05/18 03:19:46;;;;;;;17.80;7.10;;;;;;;;;;6220373;28;20055;-69
2022/05/18 03:26:09;;;;;;;11.10;8.10;;;;;;;;;;6220867;28;20326;-69
2022/05/18 03:29:12;;;;;;;10.93;7.93;;;;;;;;;;6214786;28;20058;-69
2022/05/18 03:32:15;;;;;;;13.10;8.15;;;;;;;;;;6220999;28;20110;-69
2022/05/18 03:35:17;;;;;;;11.80;8.03;;;;;;;;;;6220118;28;20051;-69
2022/05/18 03:38:19;;;;;;;12.13;8.23;;;;;;;;;;6222720;28;20487;-69
2022/05/18 03:41:21;;;;;;;12.50;8.18;;;;;;;;;;6217699;28;20066;-69
2022/05/18 03:44:24;;;;;;;16.08;9.48;;;;;;;;;;6220792;28;20058;-68
2022/05/18 03:47:26;;;;;;;;;;;;;;;;;;6222071;28;20060;-69
2022/05/18 03:50:28;;;;;;;16.17;8.93;;;;;;;;;;6219747;28;19926;-69
2022/05/18 03:53:30;;;;;;;17.42;9.85;;;;;;;;;;6220039;28;20049;-69
2022/05/18 03:56:32;;;;;;;15.90;9.77;;;;;;;;;;6223225;28;20095;-69
2022/05/18 03:59:35;;;;;;;14.05;10.10;;;;;;;;;;6220259;28;20074;-69
2022/05/18 04:02:36;;;;;;;13.85;10.20;;;;;;;;;;6227576;28;20046;-69
2022/05/18 04:05:40;;;;;;;15.55;10.27;;;;;;;;;;6228761;28;20052;-69
2022/05/18 04:08:41;;;;;;;;;;;;;;;;;;6228135;28;20069;-69
2022/05/18 04:11:43;;;;;;;15.27;10.57;;;;;;;;;;6229454;28;19925;-69
2022/05/18 04:14:46;;;;;;;23.38;11.70;;;;;;;;;;6218037;28;20222;-70
2022/05/18 04:17:48;;;;;;;16.98;11.75;;;;;;;;;;6224278;28;20061;-69
2022/05/18 04:20:50;;;;;;;13.57;11.23;;;;;;;;;;6222427;28;20396;-69
2022/05/18 04:23:52;;;;;;;18.35;11.10;;;;;;;;;;6225963;28;20329;-69
2022/05/18 04:26:54;;;;;;;14.63;11.75;;;;;;;;;;6228306;28;20056;-69
2022/05/18 04:29:57;;;;;;;16.65;10.48;;;;;;;;;;6224246;28;20081;-69
2022/05/18 04:32:59;;;;;;;16.02;11.77;;;;;;;;;;6225600;28;20046;-67
2022/05/18 04:36:02;;;;;;;18.83;12.32;;;;;;;;;;6229036;28;20053;-67
2022/05/18 04:39:04;;;;;;;15.30;11.18;;;;;;;;;;6225237;28;20054;-68
2022/05/18 04:42:06;;;;;;;18.50;11.80;;;;;;;;;;6227194;28;20073;-68
2022/05/18 04:45:12;;;;;;;23.48;12.05;;;;;;;;;;6224862;28;20046;-68
2022/05/18 04:48:16;;;;;;;18.88;11.43;;;;;;;;;;6223973;28;20049;-69
2022/05/18 04:51:18;;;;;;;17.00;12.52;;;;;;;;;;6224653;28;20058;-69
2022/05/18 04:54:19;;;;;;;22.20;12.45;;;;;;;;;;6226479;28;20050;-69
2022/05/18 04:57:22;;;;;;;24.17;12.70;;;;;;;;;;6224105;28;20057;-70
2022/05/18 05:00:26;;;;;;;16.90;12.00;;;;;;;;;;6221930;28;20057;-68
2022/05/18 05:03:27;;;;;;;17.20;11.73;;;;;;;;;;6222446;28;20155;-70
2022/05/18 05:06:31;;;;;;;18.33;11.60;;;;;;;;;;6221425;28;20069;-69
2022/05/18 05:09:33;;;;;;;15.48;12.23;;;;;;;;;;6226775;28;20158;-70
2022/05/18 05:12:34;;;;;;;16.48;12.02;;;;;;;;;;6221737;28;20202;-69
2022/05/18 05:15:38;;;;;;;22.08;11.95;;;;;;;;;;6226760;28;20061;-70
2022/05/18 05:18:40;;;;;;;14.90;12.45;;;;;;;;;;6224736;28;20054;-70
2022/05/18 05:21:42;;;;;;;20.40;12.93;;;;;;;;;;6221940;28;20053;-66
2022/05/18 05:24:44;;;;;;;19.17;12.13;;;;;;;;;;6222949;28;20054;-66
2022/05/18 05:27:46;;;;;;;19.65;12.23;;;;;;;;;;6225985;28;20569;-66
2022/05/18 05:30:49;;;;;;;19.33;12.48;;;;;;;;;;6220773;28;20118;-66
2022/05/18 05:33:50;;;;;;;;;;;;;;;;;;6221462;28;20130;-67
2022/05/18 05:36:52;;;;;;;17.48;13.05;;;;;;;;;;6222276;28;19924;-67
2022/05/18 05:39:55;;;;;;;19.58;12.70;;;;;;;;;;6221607;28;20058;-66
2022/05/18 05:42:56;;;;;;;24.63;14.30;;;;;;;;;;6221333;28;20124;-68
2022/05/18 05:46:01;;;;;;;17.63;13.30;;;;;;;;;;6220472;28;20542;-66
2022/05/18 05:49:03;;;;;;;20.33;14.02;;;;;;;;;;6226458;28;20252;-66
2022/05/18 05:52:05;;;;;;;21.60;14.13;;;;;;;;;;6223229;28;20341;-66
2022/05/18 05:55:08;;;;;;;19.13;12.82;;;;;;;;;;6222988;28;20264;-66
2022/05/18 05:58:09;;;;;;;23.87;14.87;;;;;;;;;;6220023;28;20068;-66
2022/05/18 06:01:13;;;;;;;21.20;14.70;;;;;;;;;;6220021;28;20464;-66
2022/05/18 06:04:17;;;;;;;21.05;13.05;;;;;;;;;;6219287;28;20389;-67
2022/05/18 06:07:19;;;;;;;21.20;14.40;;;;;;;;;;6222255;28;20264;-64
2022/05/18 06:10:21;;;;;;;26.35;15.20;;;;;;;;;;6224814;28;20058;-66
2022/05/18 06:13:22;;;;;;;24.38;13.30;;;;;;;;;;6219279;28;20085;-68
2022/05/18 06:16:25;;;;;;;22.20;15.52;;;;;;;;;;6218351;28;20247;-65
2022/05/18 06:19:29;;;;;;;21.95;14.63;;;;;;;;;;6224115;28;20053;-66
2022/05/18 06:22:31;;;;;;;16.75;13.23;;;;;;;;;;6221870;28;20293;-67
2022/05/18 06:25:32;;;;;;;20.60;13.40;;;;;;;;;;6225250;28;20060;-67
2022/05/18 06:28:36;;;;;;;20.80;13.70;;;;;;;;;;6217364;28;20061;-66
2022/05/18 06:31:38;;;;;;;;;;;;;;;;;;6215818;28;20093;-66
2022/05/18 06:34:40;;;;;;;21.00;13.05;;;;;;;;;;6215010;28;20108;-67
2022/05/18 06:37:42;;;;;;;17.17;12.35;;;;;;;;;;6218829;28;20062;-67
2022/05/18 06:44:05;;;;;;;17.45;12.63;;;;;;;;;;6217381;28;20042;-67
2022/05/18 06:47:08;;;;;;;21.60;14.15;;;;;;;;;;6219501;28;20045;-66
2022/05/18 06:50:10;;;;;;;23.27;13.00;;;;;;;;;;6222764;28;20046;-66
2022/05/18 06:53:12;;;;;;;22.35;13.13;;;;;;;;;;6223017;28;20057;-67
2022/05/18 06:56:14;;;;;;;19.90;13.38;;;;;;;;;;6229984;28;20331;-66
2022/05/18 06:59:16;;;;;;;19.75;13.15;;;;;;;;;;6227804;28;20054;-67
2022/05/18 07:02:19;;;;;;;17.70;12.17;;;;;;;;;;6223121;28;20046;-67
2022/05/18 07:05:21;;;;;;;20.20;12.02;;;;;;;;;;6228412;28;20515;-67
2022/05/18 07:08:22;;;;;;;17.08;11.15;;;;;;;;;;6220344;28;20046;-67
2022/05/18 07:11:25;;;;;;;14.52;10.45;;;;;;;;;;6221536;28;20077;-66
2022/05/18 07:14:28;;;;;;;19.90;11.17;;;;;;;;;;6219143;28;20049;-66
2022/05/18 07:17:31;;;;;;;17.00;10.57;;;;;;;;;;6218691;28;20519;-66
2022/05/18 07:20:33;;;;;;;18.80;10.73;;;;;;;;;;6217705;28;20244;-66
2022/05/18 07:23:35;;;;;;;14.55;10.80;;;;;;;;;;6222580;28;20084;-66
2022/05/18 07:26:37;;;;;;;17.30;10.80;;;;;;;;;;6222582;28;20053;-64
2022/05/18 07:29:39;;;;;;;18.13;10.90;;;;;;;;;;6218136;28;20071;-67
2022/05/18 07:32:42;;;;;;;15.82;10.05;;;;;;;;;;6220013;28;20289;-67
2022/05/18 07:35:44;;;;;;;13.38;10.18;;;;;;;;;;6227589;28;20060;-66
2022/05/18 07:38:46;;;;;;;14.77;10.02;;;;;;;;;;6224815;28;20050;-66
2022/05/18 07:41:47;;;;;;;18.45;9.98;;;;;;;;;;6224567;28;20057;-66
2022/05/18 07:44:49;;;;;;;16.15;10.85;;;;;;;;;;6222559;28;20058;-66
2022/05/18 07:47:53;;;;;;;20.00;10.32;;;;;;;;;;6222592;28;20053;-68
2022/05/18 07:50:55;;;;;;;16.77;10.32;;;;;;;;;;6224238;28;20232;-66
2022/05/18 07:53:56;;;;;;;15.73;11.10;;;;;;;;;;6226662;28;20049;-66
2022/05/18 07:56:58;;;;;;;18.30;10.95;;;;;;;;;;6226792;28;20046;-66
2022/05/18 08:00:00;;;;;;;15.75;10.85;;;;;;;;;;6223530;28;20057;-67
2022/05/18 08:03:03;;;;;;;19.08;11.43;;;;;;;;;;6222353;28;20303;-66
2022/05/18 08:06:05;;;;;;;14.02;10.85;;;;;;;;;;6223056;28;20112;-66
2022/05/18 08:09:07;;;;;;;15.98;9.45;;;;;;;;;;6223384;28;20252;-66
2022/05/18 08:15:29;;;;;;;12.70;9.40;;;;;;;;;;6221877;28;20081;-66
2022/05/18 08:18:33;;;;;;;17.48;10.65;;;;;;;;;;6224390;28;20145;-67
2022/05/18 08:21:34;;;;;;;20.30;10.45;;;;;;;;;;6224426;28;20077;-66
2022/05/18 08:24:37;;;;;;;17.40;9.65;;;;;;;;;;6224714;28;20301;-67
2022/05/18 08:27:41;;;;;;;17.65;11.55;;;;;;;;;;6220203;28;20099;-68
2022/05/18 08:30:43;;;;;;;16.50;8.95;;;;;;;;;;6220316;28;20066;-67
2022/05/18 08:33:46;;;;;;;14.38;11.15;;;;;;;;;;6222260;28;20227;-69
2022/05/18 08:36:49;;;;;;;;;;;;;;;;;;6226884;28;20050;-66
2022/05/18 08:39:50;;;;;;;12.83;9.10;;;;;;;;;;6230397;28;20011;-67
2022/05/18 08:42:52;;;;;;;14.32;9.90;;;;;;;;;;6225802;28;20347;-67
2022/05/18 08:46:01;;;;;;;26.52;13.55;;;;;;;;;;6224026;28;20743;-67
2022/05/18 08:49:13;;;;;;;19.50;9.55;;;;;;;;;;6224886;28;20345;-67
2022/05/18 08:52:26;;;;;;;18.85;9.75;;;;;;;;;;6225201;28;20077;-67
2022/05/18 08:55:54;;;;;;;14.50;9.23;;;;;;;;;;6225054;28;20188;-67
2022/05/18 08:58:56;;;;;;;11.52;8.60;;;;;;;;;;6223356;28;20044;-68
2022/05/18 09:01:59;;;;;;;14.90;7.93;;;;;;;;;;6225088;28;20054;-68
2022/05/18 09:05:05;;;;;;;13.20;8.73;;;;;;;;;;6223543;28;20067;-66
2022/05/18 09:08:10;;;;;;;12.75;7.70;;;;;;;;;;6228366;28;20045;-67
2022/05/18 09:11:15;;;;;;;13.98;7.90;;;;;;;;;;6222043;28;20050;-66
2022/05/18 09:14:20;;;;;;;13.85;9.18;;;;;;;;;;6225470;28;20233;-67
2022/05/18 09:17:28;;;;;;;19.10;9.68;;;;;;;;;;6223783;28;20074;-67
2022/05/18 09:20:38;;;;;;;12.85;9.32;;;;;;;;;;6221988;28;20066;-66
2022/05/18 09:23:53;;;;;;;12.73;9.45;;;;;;;;;;6219574;28;20050;-67
2022/05/18 09:27:09;;;;;;;11.27;7.95;;;;;;;;;;6219107;28;20051;-66
2022/05/18 09:30:17;;;;;;;17.88;9.93;;;;;;;;;;6219761;28;20236;-66
2022/05/18 09:33:30;;;;;;;11.38;10.18;;;;;;;;;;6221409;28;20041;-66
2022/05/18 09:36:54;;;;;;;14.60;9.40;;;;;;;;;;6221017;28;20226;-66
2022/05/18 09:40:00;;;;;;;12.00;9.10;;;;;;;;;;6221328;28;20087;-67
2022/05/18 09:43:10;;;;;;;13.43;8.63;;;;;;;;;;6221361;28;20325;-67
2022/05/18 09:46:13;;;;;;;11.15;7.50;;;;;;;;;;6222210;28;20080;-66
2022/05/18 09:49:18;;;;;;;14.88;8.73;;;;;;;;;;6223766;28;20050;-67
2022/05/18 09:52:25;;;;;;;9.77;8.23;;;;;;;;;;6222965;28;20365;-66
2022/05/18 09:55:27;;;;;;;11.60;8.25;;;;;;;;;;6222349;28;20051;-67
2022/05/18 09:58:32;;;;;;;13.98;7.50;;;;;;;;;;6218590;28;20073;-66
2022/05/18 10:08:22;;;;;;;9.93;6.30;;;;;;;;;;6223281;28;20070;-67
2022/05/18 10:11:26;;;;;;;9.82;5.70;;;;;;;;;;6223803;28;20054;-64
2022/05/18 10:14:32;;;;;;;10.73;6.10;;;;;;;;;;6219145;28;20321;-66
2022/05/18 10:17:36;;;;;;;7.07;5.88;;;;;;;;;;6222481;28;20234;-66
2022/05/18 10:20:40;;;;;;;7.65;5.85;;;;;;;;;;6218048;28;20053;-66
2022/05/18 10:23:48;;;;;;;13.60;5.82;;;;;;;;;;6224035;28;20043;-66
2022/05/18 10:27:17;;;;;;;11.07;5.25;;;;;;;;;;6222386;28;20070;-66
2022/05/18 10:30:25;;;;;;;5.78;4.28;;;;;;;;;;6219557;28;20057;-67
2022/05/18 10:33:33;;;;;;;11.13;5.30;;;;;;;;;;6220536;28;20264;-65
2022/05/18 10:36:43;;;;;;;6.65;3.95;;;;;;;;;;6219609;28;20058;-70
2022/05/18 10:39:48;;;;;;;7.20;3.85;;;;;;;;;;6222126;28;20265;-66
2022/05/18 10:42:52;;;;;;;8.55;3.65;;;;;;;;;;6220418;28;20065;-66
2022/05/18 10:45:54;;;;;;;7.75;4.53;;;;;;;;;;6218040;28;20437;-66
2022/05/18 10:48:58;;;;;;;10.10;4.75;;;;;;;;;;6216522;28;20050;-67
2022/05/18 10:52:11;;;;;;;10.68;4.45;;;;;;;;;;6219607;28;20057;-67
2022/05/18 10:55:16;;;;;;;8.18;5.32;;;;;;;;;;6220039;28;20058;-68
2022/05/18 10:58:24;;;;;;;10.30;5.10;;;;;;;;;;6220782;28;20096;-68
2022/05/18 11:01:28;;;;;;;12.75;6.55;;;;;;;;;;6224530;28;20102;-68
2022/05/18 11:04:45;;;;;;;10.98;6.00;;;;;;;;;;6218647;28;20321;-69
2022/05/18 11:07:47;;;;;;;7.72;5.60;;;;;;;;;;6219532;28;20361;-67
2022/05/18 11:10:54;;;;;;;8.13;4.90;;;;;;;;;;6224462;28;20074;-67
2022/05/18 11:14:03;;;;;;;8.98;5.22;;;;;;;;;;6223587;28;20053;-68
2022/05/18 11:17:10;;;;;;;8.88;5.13;;;;;;;;;;6224018;28;20046;-69
2022/05/18 11:20:20;;;;;;;6.50;4.32;;;;;;;;;;6226024;28;20092;-69
2022/05/18 11:23:30;;;;;;;8.80;4.10;;;;;;;;;;6228911;28;20241;-69
2022/05/18 11:26:40;;;;;;;10.82;4.20;;;;;;;;;;6220906;28;20113;-69
2022/05/18 11:29:52;;;;;;;8.15;4.65;;;;;;;;;;6220534;28;20141;-69
2022/05/18 11:33:02;;;;;;;10.80;3.88;;;;;;;;;;6222502;28;20060;-69
2022/05/18 11:36:13;;;;;;;5.38;3.95;;;;;;;;;;6222869;28;20355;-69
2022/05/18 11:39:20;;;;;;;7.45;3.67;;;;;;;;;;6225084;28;20049;-70
2022/05/18 11:42:29;;;;;;;6.90;4.00;;;;;;;;;;6222546;28;20352;-69
2022/05/18 11:45:37;;;;;;;6.78;3.97;;;;;;;;;;6223874;28;20054;-70
2022/05/18 11:48:46;;;;;;;8.18;3.65;;;;;;;;;;6225552;28;20046;-70
2022/05/18 11:52:06;;;;;;;11.07;4.90;;;;;;;;;;6227608;28;20056;-70
2022/05/18 11:55:16;;;;;;;5.22;3.72;;;;;;;;;;6231019;28;20057;-70
2022/05/18 11:58:26;;;;;;;9.00;4.30;;;;;;;;;;6223711;28;20073;-71
2022/05/18 12:01:34;;;;;;;6.00;3.10;;;;;;;;;;6224575;28;20062;-70
2022/05/18 12:04:55;;;;;;;7.32;3.47;;;;;;;;;;6221052;28;20050;-70
2022/05/18 12:08:24;;;;;;;6.45;3.45;;;;;;;;;;6220218;28;20769;-70
2022/05/18 12:11:34;;;;;;;6.00;4.50;;;;;;;;;;6223030;28;20094;-70
2022/05/18 12:14:42;;;;;;;8.32;3.80;;;;;;;;;;6222999;28;20053;-70
2022/05/18 12:17:49;;;;;;;9.60;3.45;;;;;;;;;;6224283;28;20100;-70
2022/05/18 12:20:57;;;;;;;5.25;3.08;;;;;;;;;;6222247;28;20050;-70
2022/05/18 12:24:01;;;;;;;7.63;3.38;;;;;;;;;;6224431;28;20122;-70
2022/05/18 12:27:03;;;;;;;5.38;2.88;;;;;;;;;;6221684;28;20050;-70
2022/05/18 12:30:10;;;;;;;5.25;3.08;;;;;;;;;;6226750;28;20109;-69
2022/05/18 12:33:13;;;;;;;5.22;2.97;;;;;;;;;;6223773;28;20061;-70
2022/05/18 12:36:17;;;;;;;6.07;2.97;;;;;;;;;;6222240;28;20042;-70
2022/05/18 12:39:21;;;;;;;6.57;3.30;;;;;;;;;;6223982;28;20049;-70
2022/05/18 12:42:25;;;;;;;7.00;3.42;;;;;;;;;;6223675;28;20046;-70
2022/05/18 12:45:37;;;;;;;7.30;2.78;;;;;;;;;;6224159;28;20126;-70
2022/05/18 12:48:44;;;;;;;4.07;2.97;;;;;;;;;;6220009;28;20264;-70
2022/05/18 12:51:54;;;;;;;4.60;3.03;;;;;;;;;;6222794;28;20108;-70
2022/05/18 12:54:57;;;;;;;7.22;2.88;;;;;;;;;;6224091;28;20038;-70
2022/05/18 12:58:10;;;;;;;5.07;2.90;;;;;;;;;;6221332;28;20351;-70
2022/05/18 13:01:17;;;;;;;4.68;2.72;;;;;;;;;;6222863;28;20194;-69
2022/05/18 13:04:42;;;;;;;3.83;3.00;;;;;;;;;;6216535;28;20049;-70
2022/05/18 13:07:43;;;;;;;4.25;2.88;;;;;;;;;;6219032;28;20065;-70
2022/05/18 13:11:11;;;;;;;3.50;2.50;;;;;;;;;;6221804;28;20065;-70
2022/05/18 13:14:31;;;;;;;11.95;3.25;;;;;;;;;;6219384;28;20248;-69
2022/05/18 13:17:49;;;;;;;6.82;2.80;;;;;;;;;;6218835;28;20049;-67
2022/05/18 13:20:55;;;;;;;6.82;2.80;;;;;;;;;;6217321;28;20046;-69
2022/05/18 13:24:05;;;;;;;5.45;2.72;;;;;;;;;;6217923;28;20510;-69
2022/05/18 13:27:10;;;;;;;4.97;2.80;;;;;;;;;;6217316;28;20229;-70
2022/05/18 13:30:17;;;;;;;7.95;2.80;;;;;;;;;;6220364;28;20368;-68
2022/05/18 13:33:20;;;;;;;5.47;2.85;;;;;;;;;;6216912;28;20058;-68
2022/05/18 13:36:37;;;;;;;3.80;2.58;;;;;;;;;;6217414;28;20066;-69
2022/05/18 13:39:41;;;;;;;4.40;2.80;;;;;;;;;;6221583;28;20359;-69
2022/05/18 13:42:43;;;;;;;6.82;2.88;;;;;;;;;;6218966;28;20045;-67
2022/05/18 13:45:48;;;;;;;24.15;19.55;;;;;;;;;;6223964;28;20054;-67
2022/05/18 13:48:55;;;;;;;8.90;2.63;;;;;;;;;;6220888;28;20325;-67
2022/05/18 13:52:00;;;;;;;6.45;2.55;;;;;;;;;;6220332;28;20069;-66
2022/05/18 13:55:05;;;;;;;6.13;2.42;;;;;;;;;;6222219;28;20050;-66
2022/05/18 13:58:08;;;;;;;7.80;2.45;;;;;;;;;;6219670;28;20054;-67
2022/05/18 14:01:12;;;;;;;4.05;1.92;;;;;;;;;;6217519;28;20053;-67
2022/05/18 14:04:17;;;;;;;4.95;2.40;;;;;;;;;;6214490;28;20103;-67
2022/05/18 14:07:21;;;;;;;12.88;2.33;;;;;;;;;;6217166;28;20058;-67
2022/05/18 14:10:25;;;;;;;7.75;2.00;;;;;;;;;;6223604;28;20352;-69
2022/05/18 14:13:27;;;;;;;3.97;1.70;;;;;;;;;;6221118;28;20237;-67
2022/05/18 14:16:33;;;;;;;4.68;2.28;;;;;;;;;;6218515;28;20113;-67
2022/05/18 14:19:41;;;;;;;5.53;2.00;;;;;;;;;;6218840;28;20368;-67
2022/05/18 14:22:49;;;;;;;5.88;2.60;;;;;;;;;;6219425;28;20061;-67
2022/05/18 14:25:54;;;;;;;5.20;2.20;;;;;;;;;;6221095;28;20177;-68
2022/05/18 14:28:59;;;;;;;4.95;2.30;;;;;;;;;;6225101;28;20073;-68
2022/05/18 14:32:06;;;;;;;4.38;2.00;;;;;;;;;;6217950;28;20057;-68
2022/05/18 14:35:10;;;;;;;3.97;2.22;;;;;;;;;;6221660;28;20060;-68
2022/05/18 14:38:17;;;;;;;3.60;1.98;;;;;;;;;;6215179;28;21243;-68
2022/05/18 14:41:19;;;;;;;5.25;2.10;;;;;;;;;;6215419;28;20052;-69
2022/05/18 14:44:27;;;;;;;6.50;2.30;;;;;;;;;;6212788;28;20050;-69
2022/05/18 14:47:30;;;;;;;8.43;3.03;;;;;;;;;;6215896;28;20324;-68
2022/05/18 14:50:38;;;;;;;2.70;2.10;;;;;;;;;;6215386;28;20569;-68
2022/05/18 14:53:47;;;;;;;3.13;1.85;;;;;;;;;;6215448;28;20105;-68
2022/05/18 14:56:52;;;;;;;3.20;1.90;;;;;;;;;;6216943;28;20061;-68
2022/05/18 14:59:57;;;;;;;2.72;2.30;;;;;;;;;;6219359;28;20049;-67
2022/05/18 15:02:58;;;;;;;3.35;2.33;;;;;;;;;;6218503;28;20053;-68
2022/05/18 15:06:02;;;;;;;5.13;2.60;;;;;;;;;;6213858;28;20049;-68
2022/05/18 15:09:05;;;;;;;6.65;2.53;;;;;;;;;;6214475;28;20213;-68
2022/05/18 15:12:13;;;;;;;4.15;2.00;;;;;;;;;;6216589;28;20672;-67
2022/05/18 15:15:23;;;;;;;5.32;2.45;;;;;;;;;;6213970;28;20396;-67
2022/05/18 15:18:36;;;;;;;5.15;2.20;;;;;;;;;;6213519;28;20061;-68
2022/05/18 15:21:42;;;;;;;6.15;2.10;;;;;;;;;;6215000;28;20092;-67
2022/05/18 15:24:44;;;;;;;4.50;2.50;;;;;;;;;;6214616;28;20193;-67
2022/05/18 15:27:46;;;;;;;4.72;2.47;;;;;;;;;;6216464;28;20054;-68
2022/05/18 15:30:50;;;;;;;;;;;;;;;;;;6217418;28;20047;-68
2022/05/18 15:33:52;;;;;;;;;;;;;;;;;;6216890;28;19924;-69
2022/05/18 15:36:56;;;;;;;4.63;1.97;;;;;;;;;;6220707;28;19940;-69
2022/05/18 15:39:58;;;;;;;7.15;3.53;;;;;;;;;;6217973;28;20045;-69
2022/05/18 15:42:59;;;;;;;28.00;15.73;;;;;;;;;;6221261;28;20043;-70
2022/05/18 15:46:05;;;;;;;24.92;14.55;;;;;;;;;;6215463;28;20229;-69
2022/05/18 15:49:08;;;;;;;4.97;2.88;;;;;;;;;;6215744;28;20038;-68
2022/05/18 15:52:13;;;;;;;6.32;2.38;;;;;;;;;;6218865;28;20738;-69
2022/05/18 15:55:17;;;;;;;4.15;2.30;;;;;;;;;;6214983;28;20393;-67
2022/05/18 15:58:19;;;;;;;6.32;2.80;;;;;;;;;;6222834;28;20053;-65
2022/05/18 16:01:21;;;;;;;7.72;3.03;;;;;;;;;;6221460;28;20061;-67
2022/05/18 16:04:23;;;;;;;4.30;2.60;;;;;;;;;;6219200;28;20050;-71
2022/05/18 16:07:26;;;;;;;4.30;2.78;;;;;;;;;;6224476;28;20057;-69
2022/05/18 16:10:28;;;;;;;4.97;2.20;;;;;;;;;;6226338;28;20336;-68
2022/05/18 16:13:33;;;;;;;7.47;2.40;;;;;;;;;;6223440;28;20085;-69
2022/05/18 16:16:36;;;;;;;6.05;2.40;;;;;;;;;;6225744;28;20053;-67
2022/05/18 16:19:38;;;;;;;4.53;2.45;;;;;;;;;;6220455;28;20121;-63
2022/05/18 16:22:41;;;;;;;7.50;2.60;;;;;;;;;;6225024;28;20061;-66
2022/05/18 16:25:43;;;;;;;7.10;2.95;;;;;;;;;;6223293;28;20471;-66
2022/05/18 16:28:46;;;;;;;4.13;2.35;;;;;;;;;;6223885;28;20042;-66
2022/05/18 16:31:48;;;;;;;7.25;2.35;;;;;;;;;;6224772;28;20049;-65
2022/05/18 16:34:50;;;;;;;11.05;3.20;;;;;;;;;;6226045;28;20045;-66
2022/05/18 16:37:53;;;;;;;6.93;2.35;;;;;;;;;;6225002;28;20065;-65
2022/05/18 16:40:57;;;;;;;9.40;3.10;;;;;;;;;;6227820;28;20328;-65
2022/05/18 16:44:02;;;;;;;7.55;2.80;;;;;;;;;;6224839;28;20069;-65
2022/05/18 16:47:04;;;;;;;6.47;2.53;;;;;;;;;;6225346;28;20054;-65
2022/05/18 16:50:06;;;;;;;3.83;2.33;;;;;;;;;;6220158;28;20092;-65
2022/05/18 16:53:09;;;;;;;7.82;2.42;;;;;;;;;;6221440;28;20041;-64
2022/05/18 16:56:11;;;;;;;;;;;;;;;;;;6224152;28;20096;-64
2022/05/18 16:59:12;;;;;;;5.35;2.30;;;;;;;;;;6220411;28;19956;-64
2022/05/18 17:02:14;;;;;;;5.75;2.58;;;;;;;;;;6219681;28;20054;-69
2022/05/18 17:08:51;;;;;;;4.10;2.45;;;;;;;;;;6220429;28;20054;-66
2022/05/18 17:11:54;;;;;;;7.65;2.60;;;;;;;;;;6223793;28;20046;-66
2022/05/18 17:14:58;;;;;;;;;;;;;;;;;;6223828;28;20586;-66
2022/05/18 17:18:00;;;;;;;4.65;2.53;;;;;;;;;;6223887;28;19917;-66
2022/05/18 17:21:04;;;;;;;7.47;2.70;;;;;;;;;;6222765;28;20050;-65
2022/05/18 17:24:08;;;;;;;10.25;2.88;;;;;;;;;;6224096;28;20105;-67
2022/05/18 17:27:16;;;;;;;7.22;2.42;;;;;;;;;;6222094;28;20059;-66
2022/05/18 17:30:18;;;;;;;5.63;2.38;;;;;;;;;;6222920;28;20187;-66
2022/05/18 17:33:22;;;;;;;6.10;2.17;;;;;;;;;;6223506;28;20128;-74
2022/05/18 17:36:23;;;;;;;6.35;2.15;;;;;;;;;;6220356;28;20443;-76
2022/05/18 17:39:26;;;;;;;13.48;2.42;;;;;;;;;;6220088;28;20059;-67
2022/05/18 17:42:28;;;;;;;;;;;;;;;;;;6219078;28;20046;-67
2022/05/18 17:45:30;;;;;;;4.82;1.90;;;;;;;;;;6219787;28;19949;-67
2022/05/18 17:48:32;;;;;;;4.80;2.47;;;;;;;;;;6221307;28;20056;-67
2022/05/18 17:51:34;;;;;;;2.80;1.90;;;;;;;;;;6220991;28;20396;-67
2022/05/18 17:54:37;;;;;;;3.45;2.42;;;;;;;;;;6223444;28;20529;-66
2022/05/18 17:57:39;;;;;;;5.15;2.30;;;;;;;;;;6218511;28;20060;-68
2022/05/18 18:00:42;;;;;;;7.53;2.30;;;;;;;;;;6220619;28;20096;-70
2022/05/18 18:03:44;;;;;;;4.50;2.13;;;;;;;;;;6219542;28;20061;-71
2022/05/18 18:06:46;;;;;;;4.72;1.92;;;;;;;;;;6216749;28;20236;-71
2022/05/18 18:09:49;;;;;;;3.88;2.08;;;;;;;;;;6223785;28;20218;-68
2022/05/18 18:12:51;;;;;;;2.95;1.70;;;;;;;;;;6219006;28;20802;-70
2022/05/18 18:15:53;;;;;;;7.63;2.45;;;;;;;;;;6219545;28;20054;-69
2022/05/18 18:18:56;;;;;;;5.30;1.98;;;;;;;;;;6219629;28;20229;-72
2022/05/18 18:21:58;;;;;;;6.05;2.13;;;;;;;;;;6222671;28;20143;-71
2022/05/18 18:25:01;;;;;;;5.60;2.00;;;;;;;;;;6215014;28;20060;-69
2022/05/18 18:28:03;;;;;;;3.80;2.13;;;;;;;;;;6221016;28;20085;-71
2022/05/18 18:31:06;;;;;;;4.07;2.00;;;;;;;;;;6222233;28;21519;-71
2022/05/18 18:34:07;;;;;;;4.47;1.92;;;;;;;;;;6222697;28;20064;-71
2022/05/18 18:37:10;;;;;;;5.22;2.00;;;;;;;;;;6221980;28;20095;-70
2022/05/18 18:40:18;;;;;;;7.17;1.80;;;;;;;;;;6221211;28;20049;-70